Time;durP1;ratioP1;P1;durP2;ratioP2;P2;SDS_P1;SDS_P2;PMS_P1;PMS_P2;Temp;Humidity;BMP_temperature;BMP_pressure;BME280_temperature;BME280_humidity;BME280_pressure;Samples;Min_cycle;Max_cycle;Signal;HPM_P1;HPM_P2
2021/06/09 00:00:13;;;;;;;10.90;9.90;;;;;;;;;;5054781;28;20056;-63
2021/06/09 00:02:58;;;;;;;11.95;10.02;;;;;;;;;;5054875;28;20045;-64
2021/06/09 00:05:44;;;;;;;11.88;10.65;;;;;;;;;;5054806;28;20450;-64
2021/06/09 00:08:29;;;;;;;12.98;11.63;;;;;;;;;;5054153;28;20045;-63
2021/06/09 00:11:15;;;;;;;14.45;11.88;;;;;;;;;;5053889;28;20064;-63
2021/06/09 00:14:00;;;;;;;15.90;13.35;;;;;;;;;;5052626;28;20520;-64
2021/06/09 00:16:46;;;;;;;16.05;13.52;;;;;;;;;;5054729;28;20045;-63
2021/06/09 00:19:31;;;;;;;16.75;13.30;;;;;;;;;;5054464;28;20049;-64
2021/06/09 00:22:16;;;;;;;18.63;15.85;;;;;;;;;;5039660;28;20049;-63
2021/06/09 00:25:02;;;;;;;20.85;17.08;;;;;;;;;;5052856;28;20064;-64
2021/06/09 00:27:51;;;;;;;19.42;15.57;;;;;;;;;;5054503;28;20056;-63
2021/06/09 00:30:37;;;;;;;20.30;16.40;;;;;;;;;;5054183;28;20122;-63
2021/06/09 00:33:25;;;;;;;20.25;16.40;;;;;;;;;;5054333;28;20127;-63
2021/06/09 00:36:10;;;;;;;20.35;16.80;;;;;;;;;;5053205;28;20045;-64
2021/06/09 00:38:56;;;;;;;22.63;18.02;;;;;;;;;;5054169;28;20048;-63
2021/06/09 00:41:42;;;;;;;20.27;16.27;;;;;;;;;;5039176;28;20052;-63
2021/06/09 00:44:27;;;;;;;24.35;18.92;;;;;;;;;;5053124;28;20049;-63
2021/06/09 00:47:12;;;;;;;18.70;16.67;;;;;;;;;;5019507;28;20045;-63
2021/06/09 00:49:57;;;;;;;20.08;17.35;;;;;;;;;;5033920;28;20049;-63
2021/06/09 00:52:43;;;;;;;22.60;18.02;;;;;;;;;;5034070;28;20060;-63
2021/06/09 00:55:28;;;;;;;20.33;17.25;;;;;;;;;;5039206;28;20045;-63
2021/06/09 00:58:14;;;;;;;20.63;17.98;;;;;;;;;;5054042;28;20045;-64
2021/06/09 01:01:00;;;;;;;24.80;18.50;;;;;;;;;;5053505;28;20049;-64
2021/06/09 01:03:45;;;;;;;24.60;18.65;;;;;;;;;;5053891;28;20049;-64
2021/06/09 01:06:31;;;;;;;22.48;17.02;;;;;;;;;;5052806;28;20144;-63
2021/06/09 01:09:37;;;;;;;23.70;18.00;;;;;;;;;;5038662;28;20044;-63
2021/06/09 01:12:22;;;;;;;20.17;17.65;;;;;;;;;;5053735;28;20048;-63
2021/06/09 01:15:08;;;;;;;23.98;18.50;;;;;;;;;;5053726;28;20051;-64
2021/06/09 01:17:57;;;;;;;20.70;17.38;;;;;;;;;;5053263;28;20056;-63
2021/06/09 01:20:42;;;;;;;23.50;18.30;;;;;;;;;;5051168;28;20120;-63
2021/06/09 01:23:28;;;;;;;21.98;18.23;;;;;;;;;;5053302;28;20618;-63
2021/06/09 01:26:14;;;;;;;20.70;17.25;;;;;;;;;;5052189;28;20045;-64
2021/06/09 01:29:00;;;;;;;22.33;18.35;;;;;;;;;;5053197;28;20037;-64
2021/06/09 01:31:45;;;;;;;24.10;18.25;;;;;;;;;;5053127;28;20536;-64
2021/06/09 01:34:31;;;;;;;22.38;17.70;;;;;;;;;;5053158;28;20399;-63
2021/06/09 01:37:16;;;;;;;26.05;19.15;;;;;;;;;;5052127;28;20041;-63
2021/06/09 01:40:02;;;;;;;22.17;17.80;;;;;;;;;;5052700;28;20567;-63
2021/06/09 01:42:48;;;;;;;23.40;18.60;;;;;;;;;;5053111;28;20179;-64
2021/06/09 01:45:41;;;;;;;20.83;17.05;;;;;;;;;;5052882;28;20439;-64
2021/06/09 01:48:27;;;;;;;20.38;17.50;;;;;;;;;;5051213;28;20049;-63
2021/06/09 01:51:13;;;;;;;23.30;18.52;;;;;;;;;;5052625;28;20120;-63
2021/06/09 01:53:58;;;;;;;21.27;17.90;;;;;;;;;;5052721;28;20060;-63
2021/06/09 01:56:44;;;;;;;24.10;18.63;;;;;;;;;;5053039;28;20052;-64
2021/06/09 01:59:31;;;;;;;25.23;17.98;;;;;;;;;;5033904;28;20048;-64
2021/06/09 02:02:17;;;;;;;24.52;17.83;;;;;;;;;;5052768;28;20044;-63
2021/06/09 02:05:05;;;;;;;22.30;18.08;;;;;;;;;;5052678;28;20088;-63
2021/06/09 02:07:51;;;;;;;25.10;19.23;;;;;;;;;;5051214;28;20076;-63
2021/06/09 02:10:37;;;;;;;28.70;19.73;;;;;;;;;;5052442;28;20150;-63
2021/06/09 02:13:23;;;;;;;28.27;19.55;;;;;;;;;;5052486;28;20048;-64
2021/06/09 02:16:08;;;;;;;28.67;19.83;;;;;;;;;;5051777;28;20048;-63
2021/06/09 02:18:53;;;;;;;27.27;18.60;;;;;;;;;;5049447;28;20052;-63
2021/06/09 02:21:39;;;;;;;26.58;19.02;;;;;;;;;;5052337;28;20057;-63
2021/06/09 02:24:25;;;;;;;23.33;18.15;;;;;;;;;;5052233;28;20088;-64
2021/06/09 02:27:10;;;;;;;26.40;19.15;;;;;;;;;;5052439;28;20049;-64
2021/06/09 02:29:56;;;;;;;26.27;18.48;;;;;;;;;;5050078;28;20052;-63
2021/06/09 02:33:01;;;;;;;22.60;17.08;;;;;;;;;;5036859;28;20053;-63
2021/06/09 02:35:46;;;;;;;25.15;18.67;;;;;;;;;;5051993;28;20446;-63
2021/06/09 02:38:32;;;;;;;21.58;16.33;;;;;;;;;;5050596;28;20507;-63
2021/06/09 02:41:18;;;;;;;21.50;16.80;;;;;;;;;;5036878;28;20041;-63
2021/06/09 02:44:04;;;;;;;25.35;19.35;;;;;;;;;;5051221;28;20086;-63
2021/06/09 02:46:51;;;;;;;33.65;21.55;;;;;;;;;;5050241;28;20098;-63
2021/06/09 02:49:56;;;;;;;31.25;21.70;;;;;;;;;;5033710;28;20494;-63
2021/06/09 02:53:02;;;;;;;28.65;20.50;;;;;;;;;;5051206;28;20045;-63
2021/06/09 02:55:59;;;;;;;29.02;20.95;;;;;;;;;;5051469;28;20045;-63
2021/06/09 02:58:50;;;;;;;31.33;21.40;;;;;;;;;;5051923;28;20079;-63
2021/06/09 03:01:44;;;;;;;32.35;22.25;;;;;;;;;;5036646;28;20057;-63
2021/06/09 03:04:36;;;;;;;31.52;21.38;;;;;;;;;;5034699;28;20052;-63
2021/06/09 03:07:27;;;;;;;31.30;20.75;;;;;;;;;;5051695;28;20437;-63
2021/06/09 03:10:25;;;;;;;33.42;23.58;;;;;;;;;;5051462;28;20519;-63
2021/06/09 03:13:28;;;;;;;32.70;21.27;;;;;;;;;;5051728;28;20040;-63
2021/06/09 03:16:15;;;;;;;29.05;20.63;;;;;;;;;;5035478;28;20044;-63
2021/06/09 03:19:02;;;;;;;34.08;23.70;;;;;;;;;;5036971;28;20037;-63
2021/06/09 03:21:53;;;;;;;32.17;23.15;;;;;;;;;;5051611;28;20052;-63
2021/06/09 03:24:40;;;;;;;30.92;21.08;;;;;;;;;;5050831;28;20056;-63
2021/06/09 03:27:34;;;;;;;34.60;23.45;;;;;;;;;;5036646;28;20120;-63
2021/06/09 03:30:19;;;;;;;36.03;22.60;;;;;;;;;;5036565;28;20050;-63
2021/06/09 03:33:05;;;;;;;31.90;20.88;;;;;;;;;;5050493;28;20136;-63
2021/06/09 03:35:58;;;;;;;33.05;19.95;;;;;;;;;;5051594;28;20131;-63
2021/06/09 03:38:43;;;;;;;;;;;;;;;;;;5037107;28;20071;-63
2021/06/09 03:41:37;;;;;;;24.10;17.88;;;;;;;;;;5051158;28;19921;-63
2021/06/09 03:44:28;;;;;;;25.10;18.65;;;;;;;;;;5049905;28;20491;-63
2021/06/09 03:47:13;;;;;;;23.23;15.80;;;;;;;;;;5055390;28;20136;-63
2021/06/09 03:50:01;;;;;;;24.30;16.98;;;;;;;;;;5054835;28;20075;-63
2021/06/09 03:52:47;;;;;;;33.40;21.67;;;;;;;;;;5040261;28;20525;-64
2021/06/09 03:55:36;;;;;;;28.38;21.05;;;;;;;;;;5039254;28;20163;-63
2021/06/09 03:58:22;;;;;;;28.45;21.20;;;;;;;;;;5040209;28;20049;-63
2021/06/09 04:01:07;;;;;;;26.10;18.33;;;;;;;;;;5039971;28;20045;-63
2021/06/09 04:03:52;;;;;;;26.60;19.05;;;;;;;;;;5039163;28;20033;-63
2021/06/09 04:06:58;;;;;;;23.77;18.10;;;;;;;;;;5029111;28;20045;-63
2021/06/09 04:09:44;;;;;;;22.70;17.67;;;;;;;;;;5094816;22;20045;-64
2021/06/09 04:12:30;;;;;;;21.13;17.70;;;;;;;;;;5026279;28;20048;-64
2021/06/09 04:15:17;;;;;;;22.38;18.17;;;;;;;;;;5038998;28;20056;-64
2021/06/09 04:18:02;;;;;;;24.48;18.38;;;;;;;;;;5054705;28;20455;-64
2021/06/09 04:20:48;;;;;;;23.45;16.95;;;;;;;;;;5025474;28;20518;-64
2021/06/09 04:23:33;;;;;;;23.67;17.50;;;;;;;;;;5038604;28;20449;-64
2021/06/09 04:26:19;;;;;;;24.85;19.13;;;;;;;;;;5039725;28;20049;-64
2021/06/09 04:29:04;;;;;;;23.45;19.95;;;;;;;;;;5039374;28;20056;-64
2021/06/09 04:31:50;;;;;;;22.48;19.17;;;;;;;;;;5039567;28;20053;-64
2021/06/09 04:34:44;;;;;;;24.38;19.38;;;;;;;;;;5052310;28;20051;-64
2021/06/09 04:37:36;;;;;;;24.60;20.67;;;;;;;;;;5053119;28;20052;-64
2021/06/09 04:40:23;;;;;;;24.75;20.52;;;;;;;;;;5053452;28;20132;-64
2021/06/09 04:43:09;;;;;;;27.25;20.63;;;;;;;;;;5054101;28;20037;-65
2021/06/09 04:45:54;;;;;;;22.58;19.30;;;;;;;;;;5034219;28;20077;-64
2021/06/09 04:48:40;;;;;;;22.23;19.75;;;;;;;;;;5034204;28;20055;-64
2021/06/09 04:51:26;;;;;;;21.90;19.63;;;;;;;;;;5033999;28;20049;-64
2021/06/09 04:54:11;;;;;;;26.80;20.65;;;;;;;;;;5038246;28;20047;-64
2021/06/09 04:56:56;;;;;;;23.98;20.25;;;;;;;;;;5053735;28;20053;-64
2021/06/09 04:59:42;;;;;;;22.83;18.73;;;;;;;;;;5053593;28;20414;-64
2021/06/09 05:02:27;;;;;;;22.27;18.60;;;;;;;;;;5053294;28;20051;-64
2021/06/09 05:05:14;;;;;;;22.52;20.10;;;;;;;;;;5051739;28;20065;-64
2021/06/09 05:07:59;;;;;;;22.25;18.33;;;;;;;;;;5050915;28;20045;-64
2021/06/09 05:10:46;;;;;;;21.52;18.25;;;;;;;;;;5051534;28;20446;-64
2021/06/09 05:13:33;;;;;;;19.45;17.45;;;;;;;;;;5052998;28;20053;-63
2021/06/09 05:16:18;;;;;;;19.25;16.17;;;;;;;;;;5034867;28;20033;-65
2021/06/09 05:19:04;;;;;;;18.05;16.02;;;;;;;;;;5051358;28;20568;-64
2021/06/09 05:21:52;;;;;;;20.08;16.02;;;;;;;;;;5037534;28;20053;-64
2021/06/09 05:24:38;;;;;;;16.35;14.75;;;;;;;;;;5047610;28;20538;-64
2021/06/09 05:27:23;;;;;;;17.85;15.18;;;;;;;;;;5035587;28;20048;-64
2021/06/09 05:30:10;;;;;;;16.25;12.90;;;;;;;;;;5037272;28;20134;-63
2021/06/09 05:32:56;;;;;;;14.95;12.80;;;;;;;;;;5051848;28;20044;-64
2021/06/09 05:35:41;;;;;;;14.00;12.60;;;;;;;;;;5049121;28;20052;-63
2021/06/09 05:38:27;;;;;;;14.10;12.68;;;;;;;;;;5035965;28;20124;-63
2021/06/09 05:41:12;;;;;;;14.52;12.82;;;;;;;;;;5036400;28;20056;-64
2021/06/09 05:43:59;;;;;;;13.73;12.20;;;;;;;;;;5037929;28;20132;-65
2021/06/09 05:46:45;;;;;;;12.35;11.07;;;;;;;;;;5036903;28;20045;-64
2021/06/09 05:49:31;;;;;;;12.85;11.55;;;;;;;;;;5051932;28;20102;-64
2021/06/09 05:52:17;;;;;;;12.23;11.13;;;;;;;;;;5052906;28;20447;-65
2021/06/09 05:55:02;;;;;;;13.65;12.00;;;;;;;;;;5038016;28;20172;-65
2021/06/09 05:57:48;;;;;;;12.38;11.13;;;;;;;;;;5036853;28;20049;-65
2021/06/09 06:00:34;;;;;;;14.32;12.93;;;;;;;;;;5051216;28;20422;-65
2021/06/09 06:03:20;;;;;;;14.10;12.70;;;;;;;;;;5052581;28;20147;-64
2021/06/09 06:06:07;;;;;;;16.25;12.38;;;;;;;;;;5051677;28;20095;-65
2021/06/09 06:08:52;;;;;;;13.23;11.82;;;;;;;;;;5052031;28;20110;-64
2021/06/09 06:11:38;;;;;;;14.93;13.02;;;;;;;;;;5052108;28;20057;-64
2021/06/09 06:14:25;;;;;;;13.38;11.82;;;;;;;;;;5037735;28;20048;-65
2021/06/09 06:17:10;;;;;;;13.77;12.32;;;;;;;;;;5050576;28;20041;-64
2021/06/09 06:20:05;;;;;;;14.85;12.63;;;;;;;;;;5052126;28;20055;-64
2021/06/09 06:22:51;;;;;;;12.90;10.98;;;;;;;;;;5052628;28;20053;-65
2021/06/09 06:25:36;;;;;;;13.05;11.65;;;;;;;;;;5052301;28;20049;-65
2021/06/09 06:28:23;;;;;;;12.10;10.93;;;;;;;;;;5051126;28;20127;-64
2021/06/09 06:31:11;;;;;;;12.05;10.75;;;;;;;;;;5052045;28;20407;-65
2021/06/09 06:34:00;;;;;;;11.68;10.57;;;;;;;;;;5052218;28;20045;-65
2021/06/09 06:36:45;;;;;;;11.82;10.40;;;;;;;;;;5051941;28;20049;-65
2021/06/09 06:39:30;;;;;;;11.80;10.70;;;;;;;;;;5036679;28;20224;-65
2021/06/09 06:42:16;;;;;;;11.38;10.23;;;;;;;;;;5049856;28;20067;-65
2021/06/09 06:45:02;;;;;;;10.85;9.55;;;;;;;;;;5035964;28;20048;-65
2021/06/09 06:47:47;;;;;;;11.57;10.35;;;;;;;;;;5035058;28;20049;-65
2021/06/09 06:50:33;;;;;;;11.80;10.60;;;;;;;;;;5035934;28;20037;-65
2021/06/09 06:53:18;;;;;;;10.90;9.90;;;;;;;;;;5036576;28;20044;-65
2021/06/09 06:56:05;;;;;;;11.20;9.88;;;;;;;;;;5051161;28;20124;-65
2021/06/09 06:58:51;;;;;;;11.25;9.73;;;;;;;;;;5032308;28;20051;-65
2021/06/09 07:01:37;;;;;;;13.27;9.95;;;;;;;;;;5046449;28;20041;-65
2021/06/09 07:04:22;;;;;;;10.68;9.48;;;;;;;;;;5050782;28;20041;-64
2021/06/09 07:07:15;;;;;;;10.73;9.40;;;;;;;;;;5050020;28;20037;-65
2021/06/09 07:10:07;;;;;;;10.38;9.38;;;;;;;;;;5034969;28;20106;-65
2021/06/09 07:12:52;;;;;;;13.00;10.23;;;;;;;;;;5050904;28;20555;-64
2021/06/09 07:15:39;;;;;;;11.07;10.05;;;;;;;;;;5050769;28;20051;-64
2021/06/09 07:18:25;;;;;;;12.07;10.32;;;;;;;;;;5051498;28;20057;-64
2021/06/09 07:21:10;;;;;;;11.35;10.18;;;;;;;;;;5033925;28;20466;-65
2021/06/09 07:23:56;;;;;;;13.77;9.85;;;;;;;;;;5021069;28;20056;-65
2021/06/09 07:26:42;;;;;;;12.48;9.27;;;;;;;;;;5020787;28;20057;-65
2021/06/09 07:29:29;;;;;;;12.52;10.35;;;;;;;;;;5039588;28;20044;-65
2021/06/09 07:32:14;;;;;;;10.95;9.95;;;;;;;;;;5054581;28;20045;-65
2021/06/09 07:34:59;;;;;;;12.77;11.48;;;;;;;;;;5055292;28;20080;-65
2021/06/09 07:37:46;;;;;;;12.80;11.15;;;;;;;;;;5055490;28;20506;-64
2021/06/09 07:40:32;;;;;;;12.45;10.52;;;;;;;;;;5054016;28;20411;-65
2021/06/09 07:43:19;;;;;;;12.07;10.70;;;;;;;;;;5040276;28;20055;-65
2021/06/09 07:46:10;;;;;;;13.57;12.23;;;;;;;;;;5055415;28;20059;-65
2021/06/09 07:48:58;;;;;;;13.43;12.27;;;;;;;;;;5055304;28;20049;-65
2021/06/09 07:51:43;;;;;;;13.48;12.18;;;;;;;;;;5038714;28;20071;-65
2021/06/09 07:54:29;;;;;;;13.27;12.02;;;;;;;;;;5055251;28;20456;-65
2021/06/09 07:57:14;;;;;;;13.20;11.95;;;;;;;;;;5054191;28;20045;-65
2021/06/09 08:00:00;;;;;;;13.18;11.85;;;;;;;;;;5053607;28;20053;-64
2021/06/09 08:02:54;;;;;;;15.65;13.60;;;;;;;;;;5021401;28;20046;-64
2021/06/09 08:05:41;;;;;;;13.18;11.98;;;;;;;;;;5035053;28;20053;-64
2021/06/09 08:08:26;;;;;;;14.75;13.25;;;;;;;;;;5034765;28;20097;-64
2021/06/09 08:11:11;;;;;;;13.75;12.40;;;;;;;;;;5050422;28;20056;-64
2021/06/09 08:13:56;;;;;;;14.35;12.98;;;;;;;;;;5051432;28;20045;-64
2021/06/09 08:16:42;;;;;;;15.10;13.70;;;;;;;;;;5052906;28;20137;-64
2021/06/09 08:19:28;;;;;;;15.55;14.15;;;;;;;;;;5038572;28;20041;-64
2021/06/09 08:22:13;;;;;;;14.18;12.93;;;;;;;;;;5050511;28;20044;-64
2021/06/09 08:24:58;;;;;;;15.13;13.70;;;;;;;;;;5034481;28;20056;-64
2021/06/09 08:27:44;;;;;;;14.07;12.60;;;;;;;;;;5034705;28;20053;-64
2021/06/09 08:30:29;;;;;;;13.80;12.38;;;;;;;;;;5033827;28;20053;-64
2021/06/09 08:33:17;;;;;;;15.18;13.65;;;;;;;;;;5052149;28;20045;-64
2021/06/09 08:36:07;;;;;;;14.18;12.77;;;;;;;;;;5034432;28;20049;-64
2021/06/09 08:39:02;;;;;;;13.77;12.57;;;;;;;;;;5034339;28;20049;-64
2021/06/09 08:41:48;;;;;;;13.38;12.13;;;;;;;;;;5036953;28;20041;-64
2021/06/09 08:44:49;;;;;;;14.07;12.65;;;;;;;;;;5041564;28;20128;-64
2021/06/09 08:47:35;;;;;;;13.27;11.98;;;;;;;;;;5054151;28;20055;-64
2021/06/09 08:50:21;;;;;;;12.95;11.52;;;;;;;;;;5053957;28;20061;-64
2021/06/09 08:53:06;;;;;;;13.32;11.82;;;;;;;;;;5052921;28;20056;-64
2021/06/09 08:55:53;;;;;;;13.77;12.48;;;;;;;;;;5053948;28;20064;-64
2021/06/09 08:58:39;;;;;;;15.80;14.00;;;;;;;;;;5053798;28;20505;-64
2021/06/09 09:01:32;;;;;;;14.18;12.80;;;;;;;;;;5053776;28;20045;-64
2021/06/09 09:04:18;;;;;;;13.50;12.15;;;;;;;;;;5052811;28;20116;-64
2021/06/09 09:07:04;;;;;;;14.40;13.00;;;;;;;;;;5053850;28;20056;-64
2021/06/09 09:09:50;;;;;;;12.63;11.32;;;;;;;;;;5052802;28;20087;-64
2021/06/09 09:12:36;;;;;;;15.30;11.25;;;;;;;;;;5050488;28;20060;-64
2021/06/09 09:15:22;;;;;;;12.38;11.18;;;;;;;;;;5052601;28;20140;-64
2021/06/09 09:18:10;;;;;;;12.35;10.68;;;;;;;;;;5053049;28;20048;-64
2021/06/09 09:20:56;;;;;;;11.38;10.38;;;;;;;;;;5030562;28;20049;-64
2021/06/09 09:23:50;;;;;;;11.57;10.57;;;;;;;;;;5050231;28;20069;-64
2021/06/09 09:26:35;;;;;;;11.15;9.68;;;;;;;;;;5053319;28;20049;-64
2021/06/09 09:29:22;;;;;;;17.40;10.35;;;;;;;;;;5053208;28;20049;-64
2021/06/09 09:32:09;;;;;;;10.38;9.38;;;;;;;;;;5053445;28;20407;-65
2021/06/09 09:34:59;;;;;;;11.68;9.85;;;;;;;;;;5051552;28;20566;-64
2021/06/09 09:37:44;;;;;;;10.40;9.35;;;;;;;;;;5038069;28;20109;-65
2021/06/09 09:40:31;;;;;;;9.73;8.73;;;;;;;;;;5038321;28;20049;-64
2021/06/09 09:43:16;;;;;;;10.60;9.48;;;;;;;;;;5052178;28;20518;-64
2021/06/09 09:46:08;;;;;;;15.52;9.40;;;;;;;;;;5037814;28;20057;-64
2021/06/09 09:49:07;;;;;;;9.52;8.57;;;;;;;;;;5053038;28;20053;-64
2021/06/09 09:51:55;;;;;;;10.38;9.48;;;;;;;;;;5052958;28;20080;-65
2021/06/09 09:54:44;;;;;;;10.88;9.80;;;;;;;;;;5051745;28;20069;-65
2021/06/09 09:57:35;;;;;;;10.73;9.60;;;;;;;;;;5037855;28;20049;-64
2021/06/09 10:00:32;;;;;;;11.35;10.20;;;;;;;;;;5052489;28;20049;-64
2021/06/09 10:03:18;;;;;;;13.43;12.20;;;;;;;;;;5052805;28;20045;-65
2021/06/09 10:06:22;;;;;;;12.93;11.70;;;;;;;;;;5051384;28;20503;-65
2021/06/09 10:09:11;;;;;;;13.30;12.00;;;;;;;;;;5052454;28;20059;-65
2021/06/09 10:12:01;;;;;;;13.65;12.35;;;;;;;;;;5052673;28;20056;-64
2021/06/09 10:14:47;;;;;;;13.32;12.02;;;;;;;;;;5051602;28;20380;-65
2021/06/09 10:17:34;;;;;;;13.50;12.30;;;;;;;;;;5032320;28;20415;-64
2021/06/09 10:20:20;;;;;;;13.77;12.45;;;;;;;;;;5032337;28;20041;-65
2021/06/09 10:23:06;;;;;;;15.68;13.95;;;;;;;;;;5017882;28;20049;-64
2021/06/09 10:26:04;;;;;;;14.68;13.27;;;;;;;;;;5037800;28;20060;-65
2021/06/09 10:29:07;;;;;;;15.35;13.88;;;;;;;;;;5052277;28;20131;-64
2021/06/09 10:31:53;;;;;;;14.40;12.95;;;;;;;;;;5052137;28;20053;-64
2021/06/09 10:34:39;;;;;;;14.55;13.27;;;;;;;;;;5052305;28;20072;-64
2021/06/09 10:37:24;;;;;;;15.77;13.35;;;;;;;;;;5050887;28;20514;-65
2021/06/09 10:40:10;;;;;;;13.80;12.50;;;;;;;;;;5051862;28;20040;-64
2021/06/09 10:42:56;;;;;;;14.75;13.32;;;;;;;;;;5052395;28;20045;-65
2021/06/09 10:45:45;;;;;;;16.88;14.35;;;;;;;;;;5051846;28;20139;-66
2021/06/09 10:48:31;;;;;;;15.63;14.23;;;;;;;;;;5017177;28;20053;-64
2021/06/09 10:51:20;;;;;;;15.60;14.05;;;;;;;;;;5037032;28;20071;-64
2021/06/09 10:54:10;;;;;;;15.38;13.70;;;;;;;;;;5051920;28;20049;-66
2021/06/09 10:56:59;;;;;;;14.10;12.88;;;;;;;;;;5050571;28;20056;-65
2021/06/09 10:59:45;;;;;;;15.85;14.35;;;;;;;;;;5091757;22;20045;-65
2021/06/09 11:02:30;;;;;;;15.65;14.13;;;;;;;;;;5050325;28;20052;-64
2021/06/09 11:05:16;;;;;;;13.57;12.32;;;;;;;;;;5039565;28;20064;-63
2021/06/09 11:08:06;;;;;;;13.18;11.98;;;;;;;;;;5037516;28;20055;-65
2021/06/09 11:10:52;;;;;;;14.50;13.20;;;;;;;;;;5050168;28;20052;-63
2021/06/09 11:13:41;;;;;;;13.23;11.82;;;;;;;;;;5050572;28;20048;-65
2021/06/09 11:16:26;;;;;;;13.13;12.02;;;;;;;;;;5051562;28;20076;-64
2021/06/09 11:19:13;;;;;;;14.10;12.63;;;;;;;;;;5050700;28;20045;-64
2021/06/09 11:22:13;;;;;;;12.55;11.35;;;;;;;;;;5050767;28;20056;-64
2021/06/09 11:25:08;;;;;;;11.70;10.57;;;;;;;;;;5049126;28;20045;-64
2021/06/09 11:28:20;;;;;;;12.13;10.95;;;;;;;;;;5049993;28;20056;-64
2021/06/09 11:31:14;;;;;;;12.65;11.38;;;;;;;;;;5038445;28;20142;-63
2021/06/09 11:34:03;;;;;;;25.67;11.43;;;;;;;;;;5049984;28;20059;-64
2021/06/09 11:36:50;;;;;;;13.23;11.98;;;;;;;;;;5051428;28;20068;-64
2021/06/09 11:39:36;;;;;;;11.90;10.75;;;;;;;;;;5051141;28;20127;-64
2021/06/09 11:42:22;;;;;;;12.35;11.25;;;;;;;;;;5050360;28;20041;-64
2021/06/09 11:45:23;;;;;;;14.15;12.95;;;;;;;;;;5051254;28;20116;-63
2021/06/09 11:48:19;;;;;;;12.02;11.00;;;;;;;;;;5050417;28;20045;-64
2021/06/09 11:51:25;;;;;;;10.55;9.65;;;;;;;;;;5036263;28;20541;-63
2021/06/09 11:54:14;;;;;;;13.00;11.80;;;;;;;;;;5051496;28;20080;-64
2021/06/09 11:57:02;;;;;;;11.70;10.48;;;;;;;;;;5051092;28;20052;-64
2021/06/09 11:59:49;;;;;;;12.48;11.27;;;;;;;;;;5050815;28;20051;-63
2021/06/09 12:02:34;;;;;;;10.88;9.98;;;;;;;;;;5049861;28;20060;-64
2021/06/09 12:05:23;;;;;;;10.10;9.10;;;;;;;;;;5049799;28;20045;-64
2021/06/09 12:08:12;;;;;;;12.38;11.02;;;;;;;;;;5052725;28;20044;-64
2021/06/09 12:10:58;;;;;;;9.70;8.88;;;;;;;;;;5053988;28;20533;-64
2021/06/09 12:13:43;;;;;;;12.43;11.23;;;;;;;;;;5053832;28;20053;-66
2021/06/09 12:16:28;;;;;;;11.57;10.43;;;;;;;;;;5052092;28;20136;-66
2021/06/09 12:19:30;;;;;;;11.45;10.50;;;;;;;;;;5052626;28;20040;-63
2021/06/09 12:22:16;;;;;;;;;;;;;;;;;;5029547;28;20045;-64
2021/06/09 12:25:07;;;;;;;8.13;7.53;;;;;;;;;;5052816;28;19921;-63
2021/06/09 12:28:02;;;;;;;11.05;9.63;;;;;;;;;;5042574;28;20040;-63
2021/06/09 12:30:55;;;;;;;10.40;9.52;;;;;;;;;;5051949;28;20045;-63
2021/06/09 12:33:41;;;;;;;11.25;10.07;;;;;;;;;;5051323;28;20095;-63
2021/06/09 12:36:26;;;;;;;14.80;10.15;;;;;;;;;;5051557;28;20076;-63
2021/06/09 12:39:15;;;;;;;10.93;9.95;;;;;;;;;;5051491;28;20415;-62
2021/06/09 12:42:00;;;;;;;11.45;8.50;;;;;;;;;;5039863;28;20495;-63
2021/06/09 12:44:49;;;;;;;11.82;10.68;;;;;;;;;;5051161;28;20090;-64
2021/06/09 12:47:38;;;;;;;10.07;9.20;;;;;;;;;;5051890;28;20182;-63
2021/06/09 12:50:24;;;;;;;10.90;9.68;;;;;;;;;;5047258;28;20134;-63
2021/06/09 12:53:13;;;;;;;11.73;10.65;;;;;;;;;;5044339;28;20195;-63
2021/06/09 12:55:59;;;;;;;12.23;10.93;;;;;;;;;;5049746;28;20045;-63
2021/06/09 12:58:44;;;;;;;8.63;7.82;;;;;;;;;;5051020;28;20053;-63
2021/06/09 13:01:31;;;;;;;10.20;9.23;;;;;;;;;;5049589;28;20052;-63
2021/06/09 13:04:31;;;;;;;10.98;9.77;;;;;;;;;;5049649;28;20052;-63
2021/06/09 13:07:22;;;;;;;8.07;7.38;;;;;;;;;;5048306;28;20053;-63
2021/06/09 13:10:08;;;;;;;7.43;6.03;;;;;;;;;;5029306;28;20527;-63
2021/06/09 13:12:53;;;;;;;6.18;5.57;;;;;;;;;;5047992;28;20057;-63
2021/06/09 13:15:38;;;;;;;6.22;5.63;;;;;;;;;;5048968;28;20049;-63
2021/06/09 13:18:44;;;;;;;7.18;5.10;;;;;;;;;;5047776;28;20115;-63
2021/06/09 13:21:36;;;;;;;4.20;3.80;;;;;;;;;;5049158;28;20056;-63
2021/06/09 13:24:30;;;;;;;3.60;3.30;;;;;;;;;;5046905;28;20494;-63
2021/06/09 13:27:16;;;;;;;3.97;3.60;;;;;;;;;;5045126;28;20600;-63
2021/06/09 13:30:01;;;;;;;6.05;3.03;;;;;;;;;;5046002;28;20041;-63
2021/06/09 13:32:47;;;;;;;5.07;4.57;;;;;;;;;;5048918;28;20041;-63
2021/06/09 13:35:38;;;;;;;;;;;;;;;;;;5050065;28;20048;-63
2021/06/09 13:38:23;;;;;;;5.80;4.80;;;;;;;;;;5047950;28;20010;-63
2021/06/09 13:41:09;;;;;;;8.20;5.47;;;;;;;;;;5046883;28;20037;-63
2021/06/09 13:43:58;;;;;;;5.45;4.38;;;;;;;;;;5049410;28;20049;-63
2021/06/09 13:46:47;;;;;;;14.27;3.92;;;;;;;;;;5050378;28;20087;-64
2021/06/09 13:49:33;;;;;;;4.22;3.92;;;;;;;;;;5049629;28;20053;-63
2021/06/09 13:52:24;;;;;;;5.40;4.30;;;;;;;;;;5050530;28;20217;-63
2021/06/09 13:55:11;;;;;;;6.40;4.65;;;;;;;;;;5049491;28;20063;-63
2021/06/09 13:57:56;;;;;;;6.63;5.97;;;;;;;;;;5048704;28;20067;-63
2021/06/09 14:00:41;;;;;;;7.20;6.50;;;;;;;;;;5050038;28;20496;-63
2021/06/09 14:03:29;;;;;;;8.73;5.75;;;;;;;;;;5048958;28;20121;-62
2021/06/09 14:06:15;;;;;;;6.18;5.30;;;;;;;;;;5049995;28;20116;-64
2021/06/09 14:09:07;;;;;;;9.00;6.03;;;;;;;;;;5035414;28;20126;-64
2021/06/09 14:12:06;;;;;;;7.00;6.35;;;;;;;;;;5048116;28;20552;-64
2021/06/09 14:14:51;;;;;;;7.53;6.57;;;;;;;;;;5041167;28;20124;-64
2021/06/09 14:17:36;;;;;;;6.95;6.00;;;;;;;;;;5037637;28;20051;-63
2021/06/09 14:20:22;;;;;;;6.97;6.18;;;;;;;;;;5048772;28;20127;-64
2021/06/09 14:23:08;;;;;;;6.45;5.15;;;;;;;;;;5048534;28;20131;-63
2021/06/09 14:25:58;;;;;;;7.80;7.03;;;;;;;;;;5034918;28;20045;-63
2021/06/09 14:28:47;;;;;;;7.00;5.20;;;;;;;;;;5048660;28;20068;-63
2021/06/09 14:31:34;;;;;;;5.75;5.20;;;;;;;;;;5049981;28;20495;-63
2021/06/09 14:34:23;;;;;;;6.60;5.78;;;;;;;;;;5049441;28;20045;-63
2021/06/09 14:37:30;;;;;;;6.63;5.32;;;;;;;;;;5049655;28;20068;-62
2021/06/09 14:40:15;;;;;;;7.57;4.40;;;;;;;;;;5049192;28;20045;-65
2021/06/09 14:43:04;;;;;;;5.93;3.85;;;;;;;;;;5050301;28;20468;-65
2021/06/09 14:45:51;;;;;;;4.57;4.18;;;;;;;;;;5049816;28;20055;-65
2021/06/09 14:48:46;;;;;;;5.53;4.45;;;;;;;;;;5048722;28;20056;-65
2021/06/09 14:51:32;;;;;;;4.25;3.85;;;;;;;;;;5046292;28;20056;-65
2021/06/09 14:54:17;;;;;;;5.45;4.95;;;;;;;;;;5049281;28;20128;-65
2021/06/09 14:57:05;;;;;;;8.77;4.05;;;;;;;;;;5048955;28;20049;-65
2021/06/09 14:59:54;;;;;;;6.00;4.22;;;;;;;;;;5048087;28;20665;-65
2021/06/09 15:02:43;;;;;;;3.80;2.97;;;;;;;;;;5048655;28;20068;-65
2021/06/09 15:05:30;;;;;;;3.75;2.92;;;;;;;;;;5045261;28;20119;-65
2021/06/09 15:08:15;;;;;;;5.32;4.82;;;;;;;;;;5045487;28;20048;-65
2021/06/09 15:11:03;;;;;;;5.53;3.50;;;;;;;;;;5047204;28;20041;-65
2021/06/09 15:13:48;;;;;;;3.53;3.22;;;;;;;;;;5039877;28;20045;-65
2021/06/09 15:16:35;;;;;;;4.50;4.10;;;;;;;;;;5048359;28;20055;-65
2021/06/09 15:19:20;;;;;;;5.07;3.70;;;;;;;;;;5045847;28;20067;-65
2021/06/09 15:22:06;;;;;;;5.18;3.67;;;;;;;;;;5046614;28;20513;-64
2021/06/09 15:24:51;;;;;;;6.35;4.20;;;;;;;;;;5049686;28;20045;-65
2021/06/09 15:27:38;;;;;;;5.28;3.90;;;;;;;;;;5044005;28;20049;-65
2021/06/09 15:30:24;;;;;;;6.38;5.72;;;;;;;;;;5046968;28;20080;-65
2021/06/09 15:33:09;;;;;;;7.25;6.65;;;;;;;;;;5047168;28;20457;-65
2021/06/09 15:35:55;;;;;;;8.18;7.10;;;;;;;;;;5047594;28;20101;-65
2021/06/09 15:38:40;;;;;;;8.15;7.55;;;;;;;;;;5046712;28;20045;-65
2021/06/09 15:41:25;;;;;;;8.60;7.80;;;;;;;;;;5048434;28;20045;-65
2021/06/09 15:44:12;;;;;;;7.38;6.70;;;;;;;;;;5052088;28;20045;-65
2021/06/09 15:46:57;;;;;;;8.52;7.70;;;;;;;;;;5051580;28;20041;-65
2021/06/09 15:49:43;;;;;;;7.85;7.05;;;;;;;;;;5052528;28;20037;-65
2021/06/09 15:52:28;;;;;;;7.78;7.03;;;;;;;;;;5051007;28;20029;-65
2021/06/09 15:55:14;;;;;;;7.95;6.60;;;;;;;;;;5050298;28;20051;-65
2021/06/09 15:58:00;;;;;;;8.27;6.90;;;;;;;;;;5051200;28;20041;-65
2021/06/09 16:00:46;;;;;;;7.57;6.88;;;;;;;;;;5050517;28;20099;-64
2021/06/09 16:03:31;;;;;;;9.85;6.60;;;;;;;;;;5049623;28;20103;-65
2021/06/09 16:06:16;;;;;;;7.40;6.43;;;;;;;;;;5049944;28;20047;-64
2021/06/09 16:09:02;;;;;;;8.15;5.63;;;;;;;;;;5051279;28;20044;-64
2021/06/09 16:11:47;;;;;;;6.55;5.82;;;;;;;;;;5050802;28;20045;-65
2021/06/09 16:14:32;;;;;;;7.60;6.40;;;;;;;;;;5050281;28;20425;-65
2021/06/09 16:17:18;;;;;;;9.20;5.30;;;;;;;;;;5051207;28;20049;-64
2021/06/09 16:20:03;;;;;;;6.68;5.63;;;;;;;;;;5051834;28;20048;-65
2021/06/09 16:22:48;;;;;;;5.53;5.03;;;;;;;;;;5052184;28;20040;-65